createdAt,value
2023-05-11T00:00:36.510Z,10.1
2023-05-11T00:10:36.553Z,10.08
2023-05-11T00:20:36.487Z,10
2023-05-11T00:30:36.505Z,9.99
2023-05-11T00:40:36.502Z,9.96
2023-05-11T00:50:36.504Z,9.91
2023-05-11T01:00:36.521Z,9.87
2023-05-11T01:10:36.479Z,9.87
2023-05-11T01:20:36.574Z,9.83
2023-05-11T01:30:36.461Z,9.76
2023-05-11T01:40:36.469Z,9.8
2023-05-11T01:50:36.477Z,9.81
2023-05-11T02:00:36.450Z,9.79
2023-05-11T02:10:36.461Z,9.74
2023-05-11T02:20:36.457Z,9.71
2023-05-11T02:30:36.426Z,9.6
2023-05-11T02:40:36.443Z,9.61
2023-05-11T02:50:36.458Z,9.58
2023-05-11T03:00:36.460Z,9.58
2023-05-11T03:10:36.392Z,9.57
2023-05-11T03:20:45.103Z,9.53
2023-05-11T03:30:36.346Z,9.47
2023-05-11T03:40:36.422Z,9.43
2023-05-11T03:50:36.399Z,9.42
2023-05-11T04:00:36.499Z,9.38
2023-05-11T04:20:36.377Z,9.41
2023-05-11T04:30:36.417Z,9.44
2023-05-11T04:40:36.368Z,9.45
2023-05-11T04:50:36.352Z,9.42
2023-05-11T05:00:36.319Z,9.41
2023-05-11T05:10:36.371Z,9.41
2023-05-11T05:20:36.339Z,9.37
2023-05-11T05:30:36.400Z,9.4
2023-05-11T05:40:36.377Z,9.35
2023-05-11T05:50:36.395Z,9.42
2023-05-11T06:00:36.376Z,9.55
2023-05-11T06:10:36.363Z,9.66
2023-05-11T06:20:36.334Z,9.56
2023-05-11T06:30:36.363Z,9.57
2023-05-11T06:40:36.339Z,9.58
2023-05-11T06:50:36.336Z,9.63
2023-05-11T07:00:36.321Z,9.84
2023-05-11T07:10:36.309Z,9.82
2023-05-11T07:20:36.298Z,9.9
2023-05-11T07:30:36.456Z,9.98
2023-05-11T07:40:36.376Z,9.93
2023-05-11T07:50:36.289Z,9.95
2023-05-11T08:00:36.266Z,9.99
2023-05-11T08:10:36.357Z,10.14
2023-05-11T08:20:36.596Z,10.1
2023-05-11T08:30:36.321Z,10.25
2023-05-11T08:40:36.321Z,10.43
2023-05-11T08:50:36.283Z,10.56
2023-05-11T09:00:36.263Z,10.62
2023-05-11T09:10:36.253Z,10.84
2023-05-11T09:20:36.347Z,11.08
2023-05-11T09:30:36.271Z,11.3
2023-05-11T09:40:36.302Z,11.25
2023-05-11T09:50:36.268Z,11
2023-05-11T10:00:36.267Z,11.04
2023-05-11T10:10:36.226Z,11.07
2023-05-11T10:20:36.214Z,10.89
2023-05-11T10:30:36.226Z,10.71
2023-05-11T10:40:36.237Z,10.57
2023-05-11T10:50:36.219Z,10.43
2023-05-11T11:10:36.178Z,10.65
2023-05-11T11:20:36.176Z,10.71
2023-05-11T11:30:36.191Z,10.67
2023-05-11T11:40:43.157Z,10.53
2023-05-11T11:50:36.176Z,10.42
2023-05-11T12:00:36.184Z,10.47
2023-05-11T12:10:36.174Z,10.12
2023-05-11T12:20:36.148Z,9.91
2023-05-11T12:30:36.152Z,9.75
2023-05-11T12:40:36.144Z,9.72
2023-05-11T12:50:36.165Z,9.77
2023-05-11T13:00:36.154Z,9.98
2023-05-11T13:10:36.150Z,10.06
2023-05-11T13:20:36.151Z,10.29
2023-05-11T13:30:36.159Z,10.17
2023-05-11T13:40:36.107Z,10.23
2023-05-11T13:50:36.101Z,10.2
2023-05-11T14:00:36.160Z,10.29
2023-05-11T14:10:36.094Z,10.2
2023-05-11T14:20:36.136Z,10.16
2023-05-11T14:30:36.137Z,10.13
2023-05-11T14:40:36.112Z,10.17
2023-05-11T14:50:36.063Z,10.16
2023-05-11T15:00:36.078Z,10.11
2023-05-11T15:10:36.067Z,10.2
2023-05-11T15:20:36.101Z,10.43
2023-05-11T15:30:36.055Z,10.42
2023-05-11T15:50:36.060Z,10.33
2023-05-11T16:00:36.037Z,10.24
2023-05-11T16:10:36.129Z,10.22
2023-05-11T16:20:36.027Z,10.15
2023-05-11T16:30:36.020Z,9.94
2023-05-11T16:40:36.012Z,9.87
2023-05-11T16:50:36.023Z,9.8
2023-05-11T17:00:36.052Z,9.76
2023-05-11T17:10:36.075Z,9.7
2023-05-11T17:20:35.991Z,9.77
2023-05-11T17:30:47.078Z,9.69
2023-05-11T17:40:35.993Z,9.72
2023-05-11T17:50:35.969Z,9.69
2023-05-11T18:00:45.822Z,9.67
2023-05-11T18:10:35.982Z,9.66
2023-05-11T18:20:35.983Z,9.57
2023-05-11T18:30:41.026Z,9.51
2023-05-11T18:40:35.968Z,9.45
2023-05-11T18:50:35.996Z,9.37
2023-05-11T19:00:35.976Z,9.31
2023-05-11T19:10:36.025Z,9.27
2023-05-11T19:20:36.036Z,9.11
2023-05-11T19:30:35.996Z,9.04
2023-05-11T19:50:35.930Z,9
2023-05-11T20:00:35.948Z,8.94
2023-05-11T20:10:35.921Z,8.96
2023-05-11T20:20:35.912Z,8.97
2023-05-11T20:30:35.910Z,8.88
2023-05-11T20:40:36.190Z,8.84
2023-05-11T20:50:35.918Z,8.86
2023-05-11T21:00:35.948Z,8.86
2023-05-11T21:10:35.918Z,8.89
2023-05-11T21:20:35.922Z,8.88
2023-05-11T21:30:35.935Z,8.93
2023-05-11T21:40:35.899Z,8.95
2023-05-11T21:50:35.863Z,8.9
2023-05-11T22:00:35.907Z,8.86
2023-05-11T22:10:35.884Z,8.86
2023-05-11T22:20:35.899Z,8.89
2023-05-11T22:30:35.888Z,8.86
2023-05-11T22:40:35.941Z,8.87
2023-05-11T22:50:35.846Z,8.86
2023-05-11T23:00:35.854Z,8.84
2023-05-11T23:10:35.962Z,8.8
2023-05-11T23:20:35.868Z,8.79
2023-05-11T23:30:35.848Z,8.73
2023-05-11T23:40:35.865Z,8.69
2023-05-11T23:50:35.860Z,8.64
